This is the latest recevied weather packets stored in our database for station/object KC9DRE. If no packets are shown the sender has not sent any weather packets the latest 10 day(s).
| Time | Temp. | Humidity | Pressure | Rain* | Wind** | Luminosity | Snow |
|---|---|---|---|---|---|---|---|
| 1787844572 | 26.67° C | 73% | 1016.7 hPa | 0 mm | - | 643 W/m² | - |
| 1787844267 | 26.67° C | 76% | 1016.8 hPa | 0 mm | - | 630 W/m² | - |
| 1787843966 | 27.22° C | 73% | 1016.7 hPa | 0 mm | - | 614 W/m² | - |
| 1787843661 | 27.22° C | 73% | 1016.6 hPa | 0 mm | - | 600 W/m² | - |
| 1787843358 | 26.67° C | 73% | 1016.6 hPa | 0 mm | - | 587 W/m² | - |
| 1787843054 | 26.67° C | 75% | 1016.5 hPa | 0 mm | - | 571 W/m² | - |
| 1787842753 | 27.22° C | 71% | 1016.5 hPa | 0 mm | - | 503 W/m² | - |
| 1787842448 | 27.22° C | 72% | 1016.5 hPa | 0 mm | - | 543 W/m² | - |
| 1787842143 | 26.67° C | 75% | 1016.4 hPa | 0 mm | - | 276 W/m² | - |
| 1787841838 | 26.11° C | 78% | 1016.3 hPa | 0 mm | - | 519 W/m² | - |
| 1787841534 | 25.56° C | 82% | 1016.3 hPa | 0 mm | - | 506 W/m² | - |
| 1787841232 | 25° C | 81% | 1016.3 hPa | 0 mm | - | 488 W/m² | - |
| 1787840927 | 25° C | 82% | 1016.4 hPa | 0 mm | - | 488 W/m² | - |
| 1787840623 | 24.44° C | 84% | 1016.1 hPa | 0 mm | - | 463 W/m² | - |
| 1787840318 | 24.44° C | 84% | 1016.2 hPa | 0 mm | - | 440 W/m² | - |
| 1787840018 | 24.44° C | 83% | 1016.2 hPa | 0 mm | - | 434 W/m² | - |
| 1787839718 | 23.89° C | 84% | 1016.3 hPa | 0 mm | - | 419 W/m² | - |
| 1787839413 | 23.89° C | 84% | 1016.2 hPa | 0 mm | - | 438 W/m² | - |
| 1787839113 | 23.33° C | 88% | 1016.3 hPa | 0 mm | - | 406 W/m² | - |
| 1787838812 | 22.78° C | 90% | 1016.5 hPa | 0 mm | - | 420 W/m² | - |
| 1787838507 | 21.67° C | 96% | 1016.2 hPa | 0 mm | - | 416 W/m² | - |
| 1787838206 | 20.56° C | 97% | 1016.4 hPa | 0 mm | - | 367 W/m² | - |
| 1787837905 | 20.56° C | 97% | 1016.4 hPa | 0 mm | - | 245 W/m² | - |
| 1787837604 | 20.56° C | 98% | 1016.3 hPa | 0 mm | - | 204 W/m² | - |
| 1787837298 | 20.56° C | 98% | 1016.6 hPa | 0 mm | - | 155 W/m² | - |
* Rain latest hour (hover to see other rain measurements)
** Current wind speed in m/s (hover to see current wind gust speed)